createdAt,value
2022-09-11T02:30:12.529Z,0
2022-09-11T02:31:11.140Z,0
2022-09-11T02:32:11.053Z,0
2022-09-11T02:33:11.053Z,0
2022-09-11T02:34:11.038Z,0
2022-09-11T02:35:11.049Z,0
2022-09-11T02:36:11.093Z,0
2022-09-11T02:37:11.059Z,0
2022-09-11T02:38:11.051Z,0
2022-09-11T02:39:11.049Z,0
2022-09-11T02:40:11.141Z,0
2022-09-11T02:41:11.034Z,0
2022-09-11T02:42:11.109Z,0
2022-09-11T02:43:11.045Z,0
2022-09-11T02:44:11.040Z,0
2022-09-11T02:45:11.084Z,0
2022-09-11T02:46:11.051Z,0
2022-09-11T02:47:11.064Z,0
2022-09-11T02:48:11.043Z,0
2022-09-11T02:51:11.082Z,0
2022-09-11T02:52:11.057Z,0
2022-09-11T02:53:11.044Z,0
2022-09-11T02:54:11.037Z,0
2022-09-11T02:55:11.028Z,0
2022-09-11T02:56:11.052Z,0
2022-09-11T02:57:11.050Z,0
2022-09-11T02:58:11.036Z,0
2022-09-11T02:59:11.040Z,0
2022-09-11T03:00:11.026Z,0
2022-09-11T03:01:11.121Z,0
2022-09-11T03:02:11.116Z,0
2022-09-11T03:03:11.051Z,0
2022-09-11T03:04:11.050Z,0
2022-09-11T03:05:11.033Z,0
2022-09-11T03:06:11.073Z,0
2022-09-11T03:07:11.033Z,0
2022-09-11T03:08:11.042Z,0
2022-09-11T03:09:11.053Z,0
2022-09-11T03:10:11.031Z,0
2022-09-11T03:11:11.057Z,0
2022-09-11T03:12:11.033Z,0
2022-09-11T03:13:11.060Z,0
2022-09-11T03:14:11.054Z,0
2022-09-11T03:15:11.031Z,0
2022-09-11T03:16:11.111Z,0
2022-09-11T03:17:11.022Z,0
2022-09-11T03:18:11.050Z,0
2022-09-11T03:19:11.039Z,0
2022-09-11T03:20:11.025Z,0
2022-09-11T03:21:11.082Z,0
2022-09-11T03:22:11.026Z,0
2022-09-11T03:23:11.046Z,0
2022-09-11T03:24:11.040Z,0
2022-09-11T03:25:11.102Z,0
2022-09-11T03:26:11.061Z,0
2022-09-11T03:27:11.037Z,0
2022-09-11T03:28:11.032Z,0
2022-09-11T03:29:11.050Z,0
2022-09-11T03:30:11.045Z,0
2022-09-11T03:31:11.149Z,0
2022-09-11T03:32:11.026Z,0
2022-09-11T03:33:11.031Z,0
2022-09-11T03:34:11.027Z,0
2022-09-11T03:35:11.027Z,0
2022-09-11T03:36:11.064Z,0
2022-09-11T03:37:11.027Z,0
2022-09-11T03:38:11.028Z,0
2022-09-11T03:39:11.029Z,0
2022-09-11T03:40:11.057Z,0
2022-09-11T03:41:11.041Z,0
2022-09-11T03:42:11.027Z,0
2022-09-11T03:43:11.022Z,0
2022-09-11T03:44:11.025Z,0
2022-09-11T03:45:11.022Z,0
2022-09-11T03:46:11.043Z,0
2022-09-11T03:47:11.043Z,0
2022-09-11T03:48:11.043Z,0
2022-09-11T03:49:11.042Z,0
2022-09-11T03:50:11.034Z,0
2022-09-11T03:51:11.075Z,0
2022-09-11T03:52:11.023Z,0
2022-09-11T03:53:11.030Z,0
2022-09-11T03:54:11.049Z,0
2022-09-11T03:55:11.032Z,0
2022-09-11T03:56:11.063Z,0
2022-09-11T03:57:11.051Z,0
2022-09-11T03:58:11.045Z,0
2022-09-11T03:59:11.051Z,0
2022-09-11T04:00:11.035Z,0
2022-09-11T04:01:11.108Z,0
2022-09-11T04:02:11.085Z,0
2022-09-11T04:03:11.049Z,0
2022-09-11T04:04:11.050Z,0
2022-09-11T04:05:11.029Z,0
2022-09-11T04:06:11.089Z,0
2022-09-11T04:07:11.038Z,0
2022-09-11T04:08:11.047Z,0
2022-09-11T04:09:11.045Z,0
2022-09-11T04:10:11.034Z,0
2022-09-11T04:11:11.057Z,0
2022-09-11T04:12:11.047Z,0
2022-09-11T04:13:11.045Z,0
2022-09-11T04:14:11.028Z,0
2022-09-11T04:15:11.026Z,0
2022-09-11T04:16:11.086Z,0
2022-09-11T04:17:11.040Z,0
2022-09-11T04:18:11.046Z,0
2022-09-11T04:19:11.047Z,0
2022-09-11T04:20:11.036Z,0
2022-09-11T04:21:11.074Z,0
2022-09-11T04:22:11.049Z,0
2022-09-11T04:23:11.052Z,0
2022-09-11T04:24:11.045Z,0.01
2022-09-11T04:25:11.026Z,0.01
2022-09-11T04:26:11.062Z,0.01
2022-09-11T04:27:11.033Z,0.01
2022-09-11T04:28:11.039Z,0.01
2022-09-11T04:29:11.047Z,0.01
2022-09-11T04:30:11.021Z,0.01
2022-09-11T04:31:11.104Z,0.01
2022-09-11T04:32:11.049Z,0.02
2022-09-11T04:33:11.028Z,0.02
2022-09-11T04:34:11.038Z,0.02
2022-09-11T04:35:11.022Z,0.02
2022-09-11T04:36:11.074Z,0.02
2022-09-11T04:37:11.042Z,0.02
2022-09-11T04:38:11.039Z,0.02
2022-09-11T04:39:11.045Z,0.03
2022-09-11T04:40:11.050Z,0.03
2022-09-11T04:41:11.036Z,0.03
2022-09-11T04:42:11.045Z,0.03
2022-09-11T04:43:11.040Z,0.03
2022-09-11T04:44:11.041Z,0.04
2022-09-11T04:45:11.024Z,0.04
2022-09-11T04:46:11.042Z,0.04
2022-09-11T04:47:11.071Z,0.05
2022-09-11T04:48:11.025Z,0.05
2022-09-11T04:49:11.024Z,0.05
2022-09-11T04:50:11.024Z,0.06
2022-09-11T04:51:11.055Z,0.06
2022-09-11T04:52:11.025Z,0.06
2022-09-11T04:53:11.024Z,0.07
2022-09-11T04:54:11.025Z,0.08
2022-09-11T04:55:11.024Z,0.09
2022-09-11T04:56:11.041Z,0.09
2022-09-11T04:57:11.024Z,0.1
2022-09-11T04:58:11.020Z,0.11
2022-09-11T04:59:11.022Z,0.12
2022-09-11T05:00:11.019Z,0.12
2022-09-11T05:01:11.056Z,0.13
2022-09-11T05:02:11.096Z,0.13
2022-09-11T05:03:11.023Z,0.14
2022-09-11T05:04:11.021Z,0.14
2022-09-11T05:05:11.023Z,0.15
2022-09-11T05:06:11.073Z,0.15
2022-09-11T05:07:11.030Z,0.17
2022-09-11T05:08:11.041Z,0.17
2022-09-11T05:09:11.049Z,0.18
2022-09-11T05:10:11.027Z,0.19
2022-09-11T05:11:11.039Z,0.2
2022-09-11T05:12:11.037Z,0.21
2022-09-11T05:13:11.027Z,0.23
2022-09-11T05:14:11.048Z,0.24
2022-09-11T05:15:11.030Z,0.24
2022-09-11T05:16:11.092Z,0.25
2022-09-11T05:17:11.043Z,0.26
2022-09-11T05:18:11.046Z,0.27
2022-09-11T05:19:11.045Z,0.28
2022-09-11T05:20:12.064Z,0.3
2022-09-11T05:21:11.058Z,0.31
2022-09-11T05:22:11.052Z,0.33
2022-09-11T05:23:11.043Z,0.35
2022-09-11T05:24:11.047Z,0.42
2022-09-11T05:25:11.026Z,0.43
2022-09-11T05:26:11.042Z,0.56
2022-09-11T05:27:11.041Z,0.57
2022-09-11T05:28:11.051Z,0.56
2022-09-11T05:29:11.037Z,0.61
2022-09-11T05:30:11.045Z,0.64
2022-09-11T05:31:11.151Z,0.65
2022-09-11T05:32:11.043Z,0.67
2022-09-11T05:33:11.044Z,0.75
2022-09-11T05:34:11.039Z,0.68
2022-09-11T05:35:11.020Z,0.56
2022-09-11T05:36:11.071Z,0.57
2022-09-11T05:37:11.040Z,0.58
2022-09-11T05:38:11.040Z,0.58
2022-09-11T05:39:11.043Z,0.69
2022-09-11T05:40:11.065Z,0.76
2022-09-11T05:41:11.067Z,0.68
2022-09-11T05:42:11.038Z,0.67
2022-09-11T05:43:11.037Z,0.82
2022-09-11T05:44:11.042Z,0.81
2022-09-11T05:45:11.021Z,0.84
2022-09-11T05:46:11.060Z,1.12
2022-09-11T05:47:11.044Z,1.13
2022-09-11T05:48:11.033Z,1.15
2022-09-11T05:49:11.039Z,0.69
2022-09-11T05:50:11.032Z,0.65
2022-09-11T05:51:11.063Z,0.6
2022-09-11T05:52:11.046Z,0.61
2022-09-11T05:53:11.023Z,0.58
2022-09-11T05:54:11.038Z,0.6
2022-09-11T05:55:11.024Z,0.64
2022-09-11T05:56:11.038Z,0.63
2022-09-11T05:57:11.041Z,0.65
2022-09-11T05:58:11.042Z,0.68
2022-09-11T05:59:11.037Z,0.76
2022-09-11T06:00:11.031Z,1.51
2022-09-11T06:01:11.074Z,0.89
2022-09-11T06:02:11.098Z,0.65
2022-09-11T06:03:15.318Z,0.63
2022-09-11T06:04:11.030Z,0.61
2022-09-11T06:05:11.025Z,0.66
2022-09-11T06:06:11.064Z,0.63
2022-09-11T06:07:11.043Z,0.62
2022-09-11T06:08:11.042Z,0.62
2022-09-11T06:09:11.039Z,0.79
2022-09-11T06:10:11.036Z,0.64
2022-09-11T06:11:11.039Z,0.68
2022-09-11T06:12:11.021Z,0.74
2022-09-11T06:13:11.021Z,0.86
2022-09-11T06:14:11.020Z,1.4
2022-09-11T06:15:24.874Z,2.11
2022-09-11T06:16:13.498Z,1.99
2022-09-11T06:17:11.025Z,2.55
2022-09-11T06:18:11.033Z,2.57
2022-09-11T06:19:11.055Z,2.57
2022-09-11T06:20:11.033Z,1.53
2022-09-11T06:21:11.055Z,1.53
2022-09-11T06:22:11.079Z,1.53
2022-09-11T06:23:11.022Z,1.33
2022-09-11T06:24:11.030Z,1.83
2022-09-11T06:25:11.045Z,1.55
2022-09-11T06:26:11.038Z,1.97
2022-09-11T06:27:11.038Z,1.91
2022-09-11T06:28:11.033Z,1.17
2022-09-11T06:29:11.039Z,2.01
2022-09-11T06:30:11.033Z,1.19
2022-09-11T06:31:11.067Z,1.32
2022-09-11T06:32:11.039Z,1.4
2022-09-11T06:33:11.022Z,1.52
2022-09-11T06:34:11.036Z,1.36
2022-09-11T06:35:11.021Z,1.7
2022-09-11T06:36:11.060Z,2.16
2022-09-11T06:37:11.038Z,1.73
2022-09-11T06:38:11.036Z,1.4
2022-09-11T06:39:11.042Z,1.62
2022-09-11T06:40:11.102Z,1.22
2022-09-11T06:41:11.043Z,2.06
2022-09-11T06:42:11.040Z,2.06
2022-09-11T06:43:11.036Z,1.22
2022-09-11T06:44:11.046Z,1.28
2022-09-11T06:45:11.030Z,1.7
2022-09-11T06:46:11.063Z,3.32
2022-09-11T06:47:11.045Z,1.42
2022-09-11T06:48:11.044Z,1.68
2022-09-11T06:49:11.036Z,1.89
2022-09-11T06:50:11.037Z,1.85
2022-09-11T06:51:11.071Z,1.82
2022-09-11T06:52:11.042Z,2.54
2022-09-11T06:53:11.071Z,1.58
2022-09-11T06:54:11.039Z,1.23
2022-09-11T06:55:11.022Z,1.15
2022-09-11T06:56:11.045Z,1.29
2022-09-11T06:57:11.037Z,1.62
2022-09-11T06:58:11.041Z,3.11
2022-09-11T06:59:11.076Z,1.26
2022-09-11T07:00:11.041Z,1.33
2022-09-11T07:01:11.224Z,1.74
2022-09-11T07:02:11.192Z,1.56
2022-09-11T07:03:11.045Z,1.5
2022-09-11T07:04:11.039Z,1.47
2022-09-11T07:05:11.029Z,1.13
2022-09-11T07:06:11.232Z,1.23
2022-09-11T07:07:11.043Z,1.47
2022-09-11T07:08:11.040Z,1.47
2022-09-11T07:09:11.045Z,1.11
2022-09-11T07:10:11.032Z,1.03
2022-09-11T07:11:11.063Z,0.92
2022-09-11T07:12:11.045Z,0.85
2022-09-11T07:13:11.030Z,0.85
2022-09-11T07:14:11.026Z,0.82
2022-09-11T07:15:11.029Z,0.65
2022-09-11T07:16:11.123Z,0.64
2022-09-11T07:17:11.042Z,0.63
2022-09-11T07:18:11.051Z,0.53
2022-09-11T07:19:11.044Z,0.58
2022-09-11T07:20:11.030Z,0.7
2022-09-11T07:21:11.082Z,0.57
2022-09-11T07:22:11.039Z,0.46
2022-09-11T07:23:11.043Z,0.46
2022-09-11T07:24:11.076Z,0.39
2022-09-11T07:25:11.025Z,0.36
2022-09-11T07:26:11.042Z,0.5
2022-09-11T07:27:11.029Z,0.48
2022-09-11T07:28:11.025Z,0.53
2022-09-11T07:29:11.022Z,0.67
2022-09-11T07:30:11.038Z,0.81
2022-09-11T07:31:11.122Z,0.85
2022-09-11T07:32:11.027Z,0.75
2022-09-11T07:33:11.025Z,0.88
2022-09-11T07:34:11.020Z,0.92
2022-09-11T07:35:11.027Z,0.83
2022-09-11T07:36:11.042Z,0.69
2022-09-11T07:37:11.040Z,0.65
2022-09-11T07:38:11.021Z,0.74
2022-09-11T07:39:11.019Z,0.91
2022-09-11T07:40:11.077Z,1.02
2022-09-11T07:41:11.046Z,1.15
2022-09-11T07:42:11.026Z,1.01
2022-09-11T07:43:11.029Z,0.84
2022-09-11T07:44:11.026Z,0.94
2022-09-11T07:45:11.025Z,0.91
2022-09-11T07:46:11.124Z,1.12
2022-09-11T07:47:11.041Z,1
2022-09-11T07:48:11.039Z,1.25
2022-09-11T07:49:11.039Z,1.23
2022-09-11T07:50:11.028Z,1.18
2022-09-11T07:51:11.045Z,2.65
2022-09-11T07:52:16.167Z,1.81
2022-09-11T07:53:11.042Z,1.58
2022-09-11T07:54:11.020Z,1.99
2022-09-11T07:55:11.025Z,1.79
2022-09-11T07:56:11.053Z,1.8
2022-09-11T07:57:11.042Z,1.77
2022-09-11T07:58:11.036Z,3.49
2022-09-11T07:59:11.043Z,1.3
2022-09-11T08:00:11.035Z,1.77
2022-09-11T08:01:11.106Z,2.75
2022-09-11T08:02:11.062Z,4.16
2022-09-11T08:03:11.042Z,4.19
2022-09-11T08:04:11.039Z,1.51
2022-09-11T08:05:11.023Z,1.95
2022-09-11T08:06:11.050Z,1.92
2022-09-11T08:07:11.061Z,1.53
2022-09-11T08:08:11.034Z,1.53
2022-09-11T08:09:11.033Z,2.32
2022-09-11T08:10:26.712Z,3.33
2022-09-11T08:11:11.041Z,4.27
2022-09-11T08:12:11.045Z,2.15
2022-09-11T08:13:11.042Z,1.48
2022-09-11T08:14:11.026Z,1.18
2022-09-11T08:15:11.025Z,1.6
2022-09-11T08:16:11.095Z,1.29
2022-09-11T08:17:11.043Z,1.35
2022-09-11T08:18:11.044Z,1.89
2022-09-11T08:19:11.046Z,1.61
2022-09-11T08:20:11.035Z,1.51
2022-09-11T08:21:13.038Z,1.67
2022-09-11T08:22:11.057Z,1.64
2022-09-11T08:23:11.048Z,1.72
2022-09-11T08:24:11.023Z,1.8
2022-09-11T08:25:11.024Z,2.23
2022-09-11T08:26:11.045Z,2.79
2022-09-11T08:27:11.037Z,3.01
2022-09-11T08:28:11.038Z,3.46
2022-09-11T08:29:11.043Z,2.15
2022-09-11T08:30:11.035Z,2.48
2022-09-11T08:31:11.079Z,2.39
2022-09-11T08:32:11.029Z,2.78
2022-09-11T08:33:11.048Z,2.99
2022-09-11T08:34:11.040Z,2.87
2022-09-11T08:35:11.024Z,5.63
2022-09-11T08:36:11.048Z,5.68
2022-09-11T08:37:11.068Z,1.79
2022-09-11T08:38:11.034Z,1.68
2022-09-11T08:39:11.038Z,1.71
2022-09-11T08:40:11.111Z,1.69
2022-09-11T08:41:11.062Z,1.67
2022-09-11T08:42:11.041Z,1.55
2022-09-11T08:43:11.044Z,1.45
2022-09-11T08:44:11.042Z,1.36
2022-09-11T08:45:11.037Z,1.21
2022-09-11T08:46:11.107Z,0.99
2022-09-11T08:47:11.026Z,0.82
2022-09-11T08:48:11.024Z,0.65
2022-09-11T08:49:11.023Z,0.57
2022-09-11T08:50:11.030Z,0.54
2022-09-11T08:51:11.207Z,0.56
2022-09-11T08:52:11.042Z,0.58
2022-09-11T08:53:12.854Z,0.58
2022-09-11T08:54:11.023Z,0.64
2022-09-11T08:55:11.027Z,0.72
2022-09-11T08:56:11.036Z,0.82
2022-09-11T08:57:11.119Z,0.81
2022-09-11T08:58:11.019Z,0.81
2022-09-11T08:59:11.017Z,0.77
2022-09-11T09:00:11.030Z,0.85
2022-09-11T09:01:11.113Z,1.49
2022-09-11T09:02:11.071Z,3.04
2022-09-11T09:03:11.025Z,2.58
2022-09-11T09:04:11.037Z,2.56
2022-09-11T09:05:11.023Z,1.37
2022-09-11T09:06:11.036Z,1.44
2022-09-11T09:07:11.059Z,1.8
2022-09-11T09:08:11.039Z,1.8
2022-09-11T09:09:11.028Z,1.94
2022-09-11T09:10:11.039Z,1.46
2022-09-11T09:11:11.070Z,1.61
2022-09-11T09:12:11.043Z,2.1
2022-09-11T09:13:11.058Z,1.86
2022-09-11T09:14:11.040Z,1.5
2022-09-11T09:15:11.020Z,1.26
2022-09-11T09:16:11.135Z,1.23
2022-09-11T09:17:11.055Z,1.2
2022-09-11T09:18:11.038Z,1.18
2022-09-11T09:19:11.048Z,1.09
2022-09-11T09:20:11.029Z,1.4
2022-09-11T09:21:11.061Z,1.03
2022-09-11T09:22:11.088Z,1.16
2022-09-11T09:23:11.039Z,1.63
2022-09-11T09:24:11.035Z,1.45
2022-09-11T09:25:11.031Z,1.06
2022-09-11T09:26:11.058Z,0.93
2022-09-11T09:27:11.132Z,1.03
2022-09-11T09:28:11.031Z,1.14
2022-09-11T09:29:11.027Z,1.19
2022-09-11T09:30:11.028Z,1.88
2022-09-11T09:31:11.101Z,5.69
2022-09-11T09:32:11.032Z,1.97
2022-09-11T09:33:13.282Z,1.81
2022-09-11T09:34:11.034Z,1.83
2022-09-11T09:35:11.018Z,2.14
2022-09-11T09:36:11.053Z,2.16
2022-09-11T09:37:11.057Z,1.69
2022-09-11T09:38:11.039Z,1.61
2022-09-11T09:39:11.040Z,1.36
2022-09-11T09:40:11.142Z,1.17
2022-09-11T09:41:11.065Z,1.38
2022-09-11T09:42:11.050Z,1.38
2022-09-11T09:43:11.040Z,1.29
2022-09-11T09:44:11.040Z,1.28
2022-09-11T09:45:11.028Z,1.33
2022-09-11T09:46:11.077Z,1.35
2022-09-11T09:47:11.045Z,0.88
2022-09-11T09:48:11.033Z,0.55
2022-09-11T09:49:11.046Z,0.53
2022-09-11T09:50:11.036Z,0.72
2022-09-11T09:51:11.069Z,0.85
2022-09-11T09:52:11.060Z,1.09
2022-09-11T09:53:11.044Z,1.1
2022-09-11T09:54:11.045Z,1.47
2022-09-11T09:55:11.019Z,1.8
2022-09-11T09:56:11.045Z,1.84
2022-09-11T09:57:11.050Z,1.7
2022-09-11T09:58:11.035Z,1.57
2022-09-11T09:59:11.072Z,1.54
2022-09-11T10:00:11.037Z,1.59
2022-09-11T10:01:13.498Z,1.72
2022-09-11T10:02:11.068Z,1.49
2022-09-11T10:03:11.038Z,1.3
2022-09-11T10:04:11.038Z,1.13
2022-09-11T10:05:11.020Z,1.15
2022-09-11T10:06:11.035Z,1
2022-09-11T10:07:11.039Z,0.97
2022-09-11T10:08:11.021Z,0.97
2022-09-11T10:09:11.020Z,1.07
2022-09-11T10:10:11.032Z,0.84
2022-09-11T10:11:11.042Z,0.58
2022-09-11T10:12:11.021Z,0.6
2022-09-11T10:13:19.114Z,0.7
2022-09-11T10:14:11.955Z,0.82
2022-09-11T10:15:11.020Z,0.85
2022-09-11T10:16:11.045Z,0.81
2022-09-11T10:17:11.020Z,0.7
2022-09-11T10:18:11.022Z,0.71
2022-09-11T10:19:11.020Z,0.77
2022-09-11T10:20:11.037Z,1
2022-09-11T10:21:11.035Z,0.86
2022-09-11T10:22:11.038Z,0.53
2022-09-11T10:23:11.035Z,0.46
2022-09-11T10:24:11.022Z,0.37
2022-09-11T10:25:11.019Z,0.34
2022-09-11T10:26:11.059Z,0.44
2022-09-11T10:27:11.034Z,0.74
2022-09-11T10:28:11.034Z,0.95
2022-09-11T10:29:11.052Z,1.25
2022-09-11T10:30:11.046Z,1.42
2022-09-11T10:31:11.096Z,1.26
2022-09-11T10:32:11.033Z,0.9
2022-09-11T10:33:11.041Z,0.84
2022-09-11T10:34:11.070Z,0.91
2022-09-11T10:35:11.027Z,0.73
2022-09-11T10:36:11.108Z,0.64
2022-09-11T10:37:11.052Z,0.55
2022-09-11T10:38:11.037Z,0.55
2022-09-11T10:39:11.040Z,0.59
2022-09-11T10:40:11.071Z,0.49
2022-09-11T10:41:11.044Z,0.37
2022-09-11T10:42:11.034Z,0.39
2022-09-11T10:43:11.041Z,0.52
2022-09-11T10:44:11.034Z,0.54
2022-09-11T10:45:11.021Z,0.6
2022-09-11T10:46:11.099Z,1.06
2022-09-11T10:47:11.040Z,1.36
2022-09-11T10:48:11.027Z,1.3
2022-09-11T10:49:11.129Z,1.3
2022-09-11T10:50:11.032Z,1.34
2022-09-11T10:51:11.055Z,1.36
2022-09-11T10:52:11.050Z,1.45
2022-09-11T10:53:11.036Z,3.61
2022-09-11T10:54:11.031Z,5.62
2022-09-11T10:55:11.027Z,5.62
2022-09-11T10:56:11.033Z,5.69
2022-09-11T10:57:11.045Z,5.08
2022-09-11T10:58:11.024Z,4.19
2022-09-11T10:59:11.036Z,2.53
2022-09-11T11:00:11.057Z,7.13
2022-09-11T11:01:11.072Z,7.28
2022-09-11T11:02:11.069Z,7.37
2022-09-11T11:03:11.039Z,7.4
2022-09-11T11:04:12.410Z,7.45
2022-09-11T11:05:11.020Z,8.04
2022-09-11T11:06:11.032Z,7.85
2022-09-11T11:07:11.049Z,4.48
2022-09-11T11:08:11.046Z,4.48
2022-09-11T11:09:11.046Z,3.05
2022-09-11T11:10:11.051Z,2.95
2022-09-11T11:11:11.056Z,4
2022-09-11T11:12:11.036Z,2.63
2022-09-11T11:13:11.044Z,2.31
2022-09-11T11:14:11.037Z,3.81
2022-09-11T11:15:11.020Z,1.96
2022-09-11T11:16:11.073Z,2.07
2022-09-11T11:17:11.022Z,7.27
2022-09-11T11:18:11.026Z,7.12
2022-09-11T11:19:11.033Z,2.26
2022-09-11T11:20:11.033Z,2.42
2022-09-11T11:21:11.045Z,6.09
2022-09-11T11:22:11.040Z,3.5
2022-09-11T11:23:14.575Z,2.5
2022-09-11T11:24:11.020Z,1.74
2022-09-11T11:25:11.025Z,1.62
2022-09-11T11:26:11.035Z,5.1
2022-09-11T11:27:11.028Z,5.49
2022-09-11T11:28:11.020Z,1.96
2022-09-11T11:29:11.022Z,1.61
2022-09-11T11:30:11.068Z,1.37
2022-09-11T11:31:11.167Z,1.41
2022-09-11T11:32:11.024Z,1.36
2022-09-11T11:33:11.037Z,1.08
2022-09-11T11:34:11.025Z,1.07
2022-09-11T11:35:11.020Z,0.91
2022-09-11T11:36:11.043Z,0.7
2022-09-11T11:37:11.049Z,0.7
2022-09-11T11:38:11.035Z,0.96
2022-09-11T11:39:11.040Z,4.22
2022-09-11T11:40:11.093Z,1.35
2022-09-11T11:41:11.051Z,1.17
2022-09-11T11:42:11.040Z,1.09
2022-09-11T11:43:11.041Z,1.22
2022-09-11T11:44:11.039Z,1.09
2022-09-11T11:45:11.028Z,0.96
2022-09-11T11:46:11.074Z,0.99
2022-09-11T11:47:11.043Z,0.98
2022-09-11T11:48:11.040Z,0.78
2022-09-11T11:49:11.061Z,0.74
2022-09-11T11:50:11.034Z,0.79
2022-09-11T11:51:11.103Z,0.99
2022-09-11T11:52:11.227Z,0.99
2022-09-11T11:53:11.034Z,1.29
2022-09-11T11:54:11.061Z,1.78
2022-09-11T11:55:11.021Z,1.4
2022-09-11T11:56:11.041Z,1.31
2022-09-11T11:57:11.100Z,1.23
2022-09-11T11:58:11.039Z,1.17
2022-09-11T11:59:11.043Z,1.01
2022-09-11T12:00:11.028Z,0.87
2022-09-11T12:01:11.039Z,0.8
2022-09-11T12:02:11.080Z,0.77
2022-09-11T12:03:11.096Z,0.8
2022-09-11T12:04:11.039Z,0.92
2022-09-11T12:05:11.022Z,0.99
2022-09-11T12:06:11.041Z,1.04
2022-09-11T12:07:11.037Z,1.24
2022-09-11T12:08:11.061Z,1.24
2022-09-11T12:09:11.040Z,1.36
2022-09-11T12:10:11.037Z,1.25
2022-09-11T12:11:11.057Z,1.07
2022-09-11T12:12:11.040Z,0.87
2022-09-11T12:13:11.036Z,0.75
2022-09-11T12:14:11.034Z,0.82
2022-09-11T12:15:11.023Z,0.89
2022-09-11T12:16:11.421Z,1.03
2022-09-11T12:17:11.036Z,1.09
2022-09-11T12:18:11.036Z,1.18
2022-09-11T12:19:11.037Z,1.16
2022-09-11T12:20:11.059Z,0.77
2022-09-11T12:21:11.060Z,0.67
2022-09-11T12:22:11.044Z,0.7
2022-09-11T12:23:11.052Z,0.65
2022-09-11T12:24:11.025Z,0.65
2022-09-11T12:25:11.028Z,0.53
2022-09-11T12:26:11.041Z,0.59
2022-09-11T12:27:11.960Z,0.52
2022-09-11T12:28:11.044Z,0.49
2022-09-11T12:29:11.053Z,0.42
2022-09-11T12:30:11.050Z,0.31
2022-09-11T12:31:11.060Z,0.28
2022-09-11T12:32:11.034Z,0.27
2022-09-11T12:33:11.025Z,0.3
2022-09-11T12:34:11.033Z,0.37
2022-09-11T12:35:11.025Z,0.45
2022-09-11T12:36:11.037Z,0.76
2022-09-11T12:37:11.027Z,1.05
2022-09-11T12:38:11.040Z,0.91
2022-09-11T12:39:11.020Z,0.88
2022-09-11T12:40:11.157Z,0.91
2022-09-11T12:41:11.039Z,0.69
2022-09-11T12:42:11.028Z,0.82
2022-09-11T12:43:11.021Z,0.82
2022-09-11T12:44:11.025Z,0.6
2022-09-11T12:45:11.023Z,0.5
2022-09-11T12:46:11.113Z,0.45
2022-09-11T12:47:11.020Z,0.39
2022-09-11T12:48:11.045Z,0.33
2022-09-11T12:49:22.033Z,0.28
2022-09-11T12:50:11.052Z,0.29
2022-09-11T12:51:11.039Z,0.26
2022-09-11T12:52:11.022Z,0.26
2022-09-11T12:53:11.222Z,0.36
2022-09-11T12:54:11.041Z,0.54
2022-09-11T12:55:11.026Z,0.43
2022-09-11T12:56:11.075Z,0.55
2022-09-11T12:57:11.037Z,0.58
2022-09-11T12:58:11.038Z,0.5
2022-09-11T12:59:11.036Z,0.47
2022-09-11T13:00:11.105Z,0.66
2022-09-11T13:01:11.124Z,0.79
2022-09-11T13:02:11.123Z,0.77
2022-09-11T13:03:11.038Z,0.59
2022-09-11T13:04:11.040Z,0.47
2022-09-11T13:05:11.021Z,0.39
2022-09-11T13:06:11.064Z,0.35
2022-09-11T13:07:11.035Z,0.27
2022-09-11T13:08:11.047Z,0.27
2022-09-11T13:09:11.070Z,0.26
2022-09-11T13:10:11.024Z,0.26
2022-09-11T13:11:15.235Z,0.27
2022-09-11T13:12:11.039Z,0.25
2022-09-11T13:13:11.038Z,0.24
2022-09-11T13:14:11.040Z,0.25
2022-09-11T13:15:11.021Z,0.25
2022-09-11T13:16:11.071Z,0.28
2022-09-11T13:17:11.034Z,0.28
2022-09-11T13:18:11.042Z,0.3
2022-09-11T13:19:11.036Z,0.28
2022-09-11T13:20:11.027Z,0.27
2022-09-11T13:21:11.036Z,0.24
2022-09-11T13:22:11.045Z,0.22
2022-09-11T13:23:11.039Z,0.21
2022-09-11T13:24:11.039Z,0.21
2022-09-11T13:25:11.027Z,0.25
2022-09-11T13:26:11.128Z,0.29
2022-09-11T13:27:11.036Z,0.33
2022-09-11T13:28:11.037Z,0.3
2022-09-11T13:29:11.053Z,0.25
2022-09-11T13:30:11.019Z,0.25
2022-09-11T13:31:11.071Z,0.32
2022-09-11T13:32:11.030Z,0.44
2022-09-11T13:33:11.041Z,0.44
2022-09-11T13:34:11.043Z,0.39
2022-09-11T13:35:11.023Z,0.4
2022-09-11T13:36:11.040Z,0.41
2022-09-11T13:37:11.035Z,0.41
2022-09-11T13:38:11.040Z,0.35
2022-09-11T13:39:11.054Z,0.4
2022-09-11T13:40:11.113Z,0.4
2022-09-11T13:41:11.052Z,0.47
2022-09-11T13:42:11.034Z,0.42
2022-09-11T13:43:11.041Z,0.4
2022-09-11T13:44:11.037Z,0.48
2022-09-11T13:45:11.026Z,0.48
2022-09-11T13:46:11.054Z,0.76
2022-09-11T13:47:11.040Z,0.88
2022-09-11T13:48:11.035Z,0.87
2022-09-11T13:49:11.086Z,0.85
2022-09-11T13:50:11.036Z,0.92
2022-09-11T13:51:11.027Z,1.12
2022-09-11T13:52:11.038Z,1.15
2022-09-11T13:53:11.031Z,1.3
2022-09-11T13:54:11.066Z,1.98
2022-09-11T13:55:11.023Z,2.3
2022-09-11T13:56:11.047Z,1.56
2022-09-11T13:57:11.037Z,2.07
2022-09-11T13:58:11.035Z,1.99
2022-09-11T13:59:11.051Z,1.89
2022-09-11T14:00:11.028Z,2.59
2022-09-11T14:01:11.037Z,2.47
2022-09-11T14:02:11.045Z,3.1
2022-09-11T14:03:11.027Z,3.02
2022-09-11T14:04:11.022Z,5.73
2022-09-11T14:05:11.023Z,5.92
2022-09-11T14:06:11.035Z,5.99
2022-09-11T14:07:11.038Z,5.79
2022-09-11T14:08:11.026Z,5.79
2022-09-11T14:09:11.040Z,3.66
2022-09-11T14:10:11.032Z,2.19
2022-09-11T14:11:11.745Z,3.32
2022-09-11T14:12:11.023Z,1.66
2022-09-11T14:13:11.021Z,1.39
2022-09-11T14:14:11.024Z,1.47
2022-09-11T14:15:11.021Z,2.07
2022-09-11T14:16:11.079Z,4.23
2022-09-11T14:17:11.019Z,1.97
2022-09-11T14:18:11.020Z,1.82
2022-09-11T14:19:11.042Z,4.2
2022-09-11T14:20:11.026Z,2.18
2022-09-11T14:21:11.058Z,2.81
2022-09-11T14:22:11.039Z,2.11
2022-09-11T14:23:11.043Z,1.49
2022-09-11T14:24:11.052Z,1.34
2022-09-11T14:25:11.024Z,1.29
2022-09-11T14:26:11.056Z,1.56
2022-09-11T14:27:11.037Z,1.72
2022-09-11T14:28:11.034Z,1.46
2022-09-11T14:29:11.047Z,1.21
2022-09-11T14:30:11.036Z,3.9
2022-09-11T14:31:11.114Z,3.27
2022-09-11T14:32:11.043Z,3.5
2022-09-11T14:33:11.031Z,3.42
2022-09-11T14:34:11.029Z,3.1
2022-09-11T14:35:11.022Z,2.77
2022-09-11T14:36:11.058Z,2.65
2022-09-11T14:37:11.039Z,2.66
2022-09-11T14:38:11.035Z,2.44
2022-09-11T14:39:11.048Z,2.48
2022-09-11T14:40:11.073Z,2.21
2022-09-11T14:41:11.060Z,2.05
2022-09-11T14:42:11.046Z,1.37
2022-09-11T14:43:11.037Z,2.28
2022-09-11T14:44:11.034Z,2.06
2022-09-11T14:45:11.021Z,1.8
2022-09-11T14:46:11.119Z,1.4
2022-09-11T14:47:11.039Z,1.59
2022-09-11T14:48:11.033Z,1.27
2022-09-11T14:49:11.048Z,1.18
2022-09-11T14:50:11.032Z,1.15
2022-09-11T14:51:13.513Z,1.18
2022-09-11T14:52:11.033Z,0.93
2022-09-11T14:53:11.042Z,1.16
2022-09-11T14:54:11.052Z,1.92
2022-09-11T14:55:11.023Z,1.32
2022-09-11T14:56:11.055Z,1.16
2022-09-11T14:57:11.034Z,0.99
2022-09-11T14:58:11.037Z,0.87
2022-09-11T14:59:11.033Z,0.89
2022-09-11T15:00:11.027Z,1.11
2022-09-11T15:01:11.088Z,0.72
2022-09-11T15:02:11.041Z,0.8
2022-09-11T15:03:11.173Z,0.94
2022-09-11T15:04:11.032Z,1.12
2022-09-11T15:05:11.026Z,1.12
2022-09-11T15:06:11.053Z,1.71
2022-09-11T15:07:11.025Z,1.87
2022-09-11T15:08:11.034Z,1.87
2022-09-11T15:09:11.066Z,1.77
2022-09-11T15:10:11.026Z,1.24
2022-09-11T15:11:11.053Z,1.21
2022-09-11T15:12:11.033Z,1
2022-09-11T15:13:11.041Z,1.01
2022-09-11T15:14:20.780Z,0.8
2022-09-11T15:15:11.019Z,0.66
2022-09-11T15:16:11.201Z,0.72
2022-09-11T15:17:11.020Z,0.84
2022-09-11T15:18:11.025Z,0.92
2022-09-11T15:19:11.029Z,0.73
2022-09-11T15:20:11.031Z,0.9
2022-09-11T15:21:11.036Z,1.36
2022-09-11T15:22:11.083Z,1.05
2022-09-11T15:23:11.035Z,0.9
2022-09-11T15:24:11.038Z,1.04
2022-09-11T15:25:11.058Z,0.72
2022-09-11T15:26:11.033Z,0.72
2022-09-11T15:27:11.024Z,1.15
2022-09-11T15:28:11.018Z,1.1
2022-09-11T15:29:11.031Z,0.91
2022-09-11T15:30:11.031Z,0.96
2022-09-11T15:31:11.099Z,1.29
2022-09-11T15:32:11.026Z,1.57
2022-09-11T15:33:11.017Z,1.07
2022-09-11T15:34:11.023Z,1.01
2022-09-11T15:35:11.017Z,1.55
2022-09-11T15:36:11.039Z,0.97
2022-09-11T15:37:11.028Z,1.2
2022-09-11T15:38:11.042Z,0.98
2022-09-11T15:39:11.046Z,1.23
2022-09-11T15:40:11.106Z,1.11
2022-09-11T15:41:11.051Z,0.92
2022-09-11T15:42:11.031Z,0.79
2022-09-11T15:43:11.037Z,0.69
2022-09-11T15:44:11.032Z,0.79
2022-09-11T15:45:11.023Z,0.72
2022-09-11T15:46:11.033Z,0.6
2022-09-11T15:47:11.040Z,0.54
2022-09-11T15:48:11.030Z,0.55
2022-09-11T15:49:11.028Z,0.62
2022-09-11T15:50:11.025Z,0.62
2022-09-11T15:51:13.342Z,0.56
2022-09-11T15:52:11.037Z,0.55
2022-09-11T15:53:11.044Z,0.49
2022-09-11T15:54:11.061Z,0.51
2022-09-11T15:55:11.022Z,0.57
2022-09-11T15:56:11.038Z,0.53
2022-09-11T15:57:11.030Z,0.49
2022-09-11T15:58:11.039Z,0.51
2022-09-11T15:59:11.038Z,0.52
2022-09-11T16:00:11.028Z,0.47
2022-09-11T16:01:11.074Z,0.42
2022-09-11T16:02:11.038Z,0.37
2022-09-11T16:03:11.041Z,0.33
2022-09-11T16:04:11.038Z,0.31